sensor_id;sensor_type;location;lat;lon;timestamp;P1;durP1;ratioP1;P2;durP2;ratioP2
12816;SDS011;6473;51.552;6.716;2023-04-01T00:01:02;4.28;;;1.70;;
12816;SDS011;6473;51.552;6.716;2023-04-01T00:03:32;3.30;;;1.80;;
12816;SDS011;6473;51.552;6.716;2023-04-01T00:06:00;4.40;;;1.70;;
12816;SDS011;6473;51.552;6.716;2023-04-01T00:08:28;4.25;;;1.77;;
12816;SDS011;6473;51.552;6.716;2023-04-01T00:10:55;6.70;;;1.70;;
12816;SDS011;6473;51.552;6.716;2023-04-01T00:13:23;7.10;;;1.95;;
12816;SDS011;6473;51.552;6.716;2023-04-01T00:15:50;3.25;;;1.70;;
12816;SDS011;6473;51.552;6.716;2023-04-01T00:18:17;4.03;;;1.85;;
12816;SDS011;6473;51.552;6.716;2023-04-01T00:20:47;4.22;;;1.92;;
12816;SDS011;6473;51.552;6.716;2023-04-01T00:23:15;5.32;;;1.92;;
12816;SDS011;6473;51.552;6.716;2023-04-01T00:25:43;3.85;;;2.08;;
12816;SDS011;6473;51.552;6.716;2023-04-01T00:28:12;3.95;;;1.85;;
12816;SDS011;6473;51.552;6.716;2023-04-01T00:30:39;5.63;;;1.58;;
12816;SDS011;6473;51.552;6.716;2023-04-01T00:33:06;3.20;;;1.92;;
12816;SDS011;6473;51.552;6.716;2023-04-01T00:35:33;4.45;;;2.05;;
12816;SDS011;6473;51.552;6.716;2023-04-01T00:38:01;3.88;;;1.92;;
12816;SDS011;6473;51.552;6.716;2023-04-01T00:40:29;3.83;;;1.90;;
12816;SDS011;6473;51.552;6.716;2023-04-01T00:42:57;6.72;;;1.70;;
12816;SDS011;6473;51.552;6.716;2023-04-01T00:45:26;2.15;;;1.40;;
12816;SDS011;6473;51.552;6.716;2023-04-01T00:47:59;2.17;;;1.50;;
12816;SDS011;6473;51.552;6.716;2023-04-01T00:50:30;3.28;;;1.52;;
12816;SDS011;6473;51.552;6.716;2023-04-01T00:53:00;3.47;;;1.80;;
12816;SDS011;6473;51.552;6.716;2023-04-01T00:55:30;1.65;;;1.30;;
12816;SDS011;6473;51.552;6.716;2023-04-01T00:57:59;2.92;;;1.48;;
12816;SDS011;6473;51.552;6.716;2023-04-01T01:00:29;1.33;;;1.23;;
12816;SDS011;6473;51.552;6.716;2023-04-01T01:02:56;1.83;;;1.15;;
12816;SDS011;6473;51.552;6.716;2023-04-01T01:05:25;2.38;;;1.40;;
12816;SDS011;6473;51.552;6.716;2023-04-01T01:08:02;1.92;;;1.70;;
12816;SDS011;6473;51.552;6.716;2023-04-01T01:10:36;2.10;;;1.50;;
12816;SDS011;6473;51.552;6.716;2023-04-01T01:13:08;2.25;;;1.42;;
12816;SDS011;6473;51.552;6.716;2023-04-01T01:15:41;3.40;;;1.30;;
12816;SDS011;6473;51.552;6.716;2023-04-01T01:18:15;1.60;;;1.40;;
12816;SDS011;6473;51.552;6.716;2023-04-01T01:21:04;1.40;;;1.30;;
12816;SDS011;6473;51.552;6.716;2023-04-01T01:23:57;2.25;;;1.50;;
12816;SDS011;6473;51.552;6.716;2023-04-01T01:26:48;4.88;;;1.45;;
12816;SDS011;6473;51.552;6.716;2023-04-01T01:29:31;4.57;;;1.90;;
12816;SDS011;6473;51.552;6.716;2023-04-01T01:32:09;2.40;;;1.60;;
12816;SDS011;6473;51.552;6.716;2023-04-01T01:34:46;2.72;;;1.45;;
12816;SDS011;6473;51.552;6.716;2023-04-01T01:37:23;1.92;;;1.50;;
12816;SDS011;6473;51.552;6.716;2023-04-01T01:39:53;2.78;;;2.03;;
12816;SDS011;6473;51.552;6.716;2023-04-01T01:42:24;2.55;;;1.40;;
12816;SDS011;6473;51.552;6.716;2023-04-01T01:44:53;2.10;;;1.60;;
12816;SDS011;6473;51.552;6.716;2023-04-01T01:47:22;2.17;;;1.70;;
12816;SDS011;6473;51.552;6.716;2023-04-01T01:49:51;4.30;;;1.90;;
12816;SDS011;6473;51.552;6.716;2023-04-01T01:52:19;2.10;;;1.90;;
12816;SDS011;6473;51.552;6.716;2023-04-01T01:54:49;1.73;;;1.63;;
12816;SDS011;6473;51.552;6.716;2023-04-01T01:57:19;2.50;;;1.80;;
12816;SDS011;6473;51.552;6.716;2023-04-01T01:59:51;2.13;;;1.48;;
12816;SDS011;6473;51.552;6.716;2023-04-01T02:02:24;3.03;;;1.73;;
12816;SDS011;6473;51.552;6.716;2023-04-01T02:04:56;2.83;;;1.80;;
12816;SDS011;6473;51.552;6.716;2023-04-01T02:07:25;1.77;;;1.50;;
12816;SDS011;6473;51.552;6.716;2023-04-01T02:09:58;3.83;;;1.80;;
12816;SDS011;6473;51.552;6.716;2023-04-01T02:12:26;2.70;;;1.88;;
12816;SDS011;6473;51.552;6.716;2023-04-01T02:14:55;2.85;;;1.60;;
12816;SDS011;6473;51.552;6.716;2023-04-01T02:17:27;2.13;;;1.73;;
12816;SDS011;6473;51.552;6.716;2023-04-01T02:19:56;2.50;;;1.58;;
12816;SDS011;6473;51.552;6.716;2023-04-01T02:22:26;2.58;;;1.50;;
12816;SDS011;6473;51.552;6.716;2023-04-01T02:24:59;1.30;;;1.20;;
12816;SDS011;6473;51.552;6.716;2023-04-01T02:27:29;1.75;;;1.30;;
12816;SDS011;6473;51.552;6.716;2023-04-01T02:29:57;4.20;;;1.50;;
12816;SDS011;6473;51.552;6.716;2023-04-01T02:32:24;1.63;;;1.33;;
12816;SDS011;6473;51.552;6.716;2023-04-01T02:34:53;1.30;;;1.20;;
12816;SDS011;6473;51.552;6.716;2023-04-01T02:37:20;1.33;;;1.15;;
12816;SDS011;6473;51.552;6.716;2023-04-01T02:39:47;3.70;;;1.30;;
12816;SDS011;6473;51.552;6.716;2023-04-01T02:42:15;1.35;;;1.25;;
12816;SDS011;6473;51.552;6.716;2023-04-01T02:44:42;1.67;;;0.95;;
12816;SDS011;6473;51.552;6.716;2023-04-01T02:47:09;2.65;;;1.20;;
12816;SDS011;6473;51.552;6.716;2023-04-01T02:49:36;2.28;;;1.15;;
12816;SDS011;6473;51.552;6.716;2023-04-01T02:52:03;2.40;;;1.20;;
12816;SDS011;6473;51.552;6.716;2023-04-01T02:54:30;2.92;;;1.45;;
12816;SDS011;6473;51.552;6.716;2023-04-01T02:56:57;2.63;;;1.13;;
12816;SDS011;6473;51.552;6.716;2023-04-01T02:59:25;1.17;;;1.00;;
12816;SDS011;6473;51.552;6.716;2023-04-01T03:01:52;1.10;;;1.02;;
12816;SDS011;6473;51.552;6.716;2023-04-01T03:04:19;1.33;;;1.10;;
12816;SDS011;6473;51.552;6.716;2023-04-01T03:06:46;1.85;;;1.10;;
12816;SDS011;6473;51.552;6.716;2023-04-01T03:09:13;0.90;;;0.90;;
12816;SDS011;6473;51.552;6.716;2023-04-01T03:11:40;1.10;;;1.10;;
12816;SDS011;6473;51.552;6.716;2023-04-01T03:14:07;1.20;;;1.10;;
12816;SDS011;6473;51.552;6.716;2023-04-01T03:16:35;1.20;;;1.10;;
12816;SDS011;6473;51.552;6.716;2023-04-01T03:19:02;1.85;;;1.27;;
12816;SDS011;6473;51.552;6.716;2023-04-01T03:21:29;1.35;;;1.35;;
12816;SDS011;6473;51.552;6.716;2023-04-01T03:23:55;1.52;;;1.42;;
12816;SDS011;6473;51.552;6.716;2023-04-01T03:26:23;1.77;;;1.60;;
12816;SDS011;6473;51.552;6.716;2023-04-01T03:28:51;1.63;;;1.50;;
12816;SDS011;6473;51.552;6.716;2023-04-01T03:31:18;3.72;;;1.90;;
12816;SDS011;6473;51.552;6.716;2023-04-01T03:33:52;1.90;;;1.80;;
12816;SDS011;6473;51.552;6.716;2023-04-01T03:36:19;2.63;;;1.77;;
12816;SDS011;6473;51.552;6.716;2023-04-01T03:38:46;2.35;;;2.10;;
12816;SDS011;6473;51.552;6.716;2023-04-01T03:41:19;2.40;;;1.88;;
12816;SDS011;6473;51.552;6.716;2023-04-01T03:43:46;2.60;;;2.22;;
12816;SDS011;6473;51.552;6.716;2023-04-01T03:46:16;2.20;;;2.00;;
12816;SDS011;6473;51.552;6.716;2023-04-01T03:48:44;3.38;;;2.20;;
12816;SDS011;6473;51.552;6.716;2023-04-01T03:51:12;5.18;;;1.90;;
12816;SDS011;6473;51.552;6.716;2023-04-01T03:53:39;2.30;;;2.10;;
12816;SDS011;6473;51.552;6.716;2023-04-01T03:56:06;6.63;;;2.40;;
12816;SDS011;6473;51.552;6.716;2023-04-01T03:58:35;2.70;;;2.50;;
12816;SDS011;6473;51.552;6.716;2023-04-01T04:01:12;3.00;;;2.70;;
12816;SDS011;6473;51.552;6.716;2023-04-01T04:03:40;3.38;;;3.08;;
12816;SDS011;6473;51.552;6.716;2023-04-01T04:06:11;5.75;;;3.10;;
12816;SDS011;6473;51.552;6.716;2023-04-01T04:08:39;4.45;;;2.97;;
12816;SDS011;6473;51.552;6.716;2023-04-01T04:11:06;4.13;;;3.40;;
12816;SDS011;6473;51.552;6.716;2023-04-01T04:13:36;3.90;;;3.20;;
12816;SDS011;6473;51.552;6.716;2023-04-01T04:16:04;4.05;;;3.45;;
12816;SDS011;6473;51.552;6.716;2023-04-01T04:18:32;3.42;;;3.10;;
12816;SDS011;6473;51.552;6.716;2023-04-01T04:20:59;4.55;;;3.00;;
12816;SDS011;6473;51.552;6.716;2023-04-01T04:23:27;3.10;;;2.85;;
12816;SDS011;6473;51.552;6.716;2023-04-01T04:25:56;3.60;;;3.10;;
12816;SDS011;6473;51.552;6.716;2023-04-01T04:28:26;3.78;;;2.83;;
12816;SDS011;6473;51.552;6.716;2023-04-01T04:30:55;3.67;;;2.97;;
12816;SDS011;6473;51.552;6.716;2023-04-01T04:33:23;5.95;;;3.30;;
12816;SDS011;6473;51.552;6.716;2023-04-01T04:35:50;3.50;;;3.17;;
12816;SDS011;6473;51.552;6.716;2023-04-01T04:38:18;4.60;;;3.88;;
12816;SDS011;6473;51.552;6.716;2023-04-01T04:40:46;5.03;;;3.35;;
12816;SDS011;6473;51.552;6.716;2023-04-01T04:43:14;4.22;;;3.38;;
12816;SDS011;6473;51.552;6.716;2023-04-01T04:45:43;4.45;;;3.53;;
12816;SDS011;6473;51.552;6.716;2023-04-01T04:48:11;4.57;;;3.35;;
12816;SDS011;6473;51.552;6.716;2023-04-01T04:50:44;5.68;;;3.40;;
12816;SDS011;6473;51.552;6.716;2023-04-01T04:53:11;3.67;;;3.30;;
12816;SDS011;6473;51.552;6.716;2023-04-01T04:55:42;4.57;;;3.67;;
12816;SDS011;6473;51.552;6.716;2023-04-01T04:58:30;6.70;;;3.78;;
12816;SDS011;6473;51.552;6.716;2023-04-01T05:00:58;5.03;;;3.97;;
12816;SDS011;6473;51.552;6.716;2023-04-01T05:03:29;7.43;;;3.70;;
12816;SDS011;6473;51.552;6.716;2023-04-01T05:05:56;4.72;;;3.60;;
12816;SDS011;6473;51.552;6.716;2023-04-01T05:08:23;5.82;;;3.88;;
12816;SDS011;6473;51.552;6.716;2023-04-01T05:10:50;4.57;;;3.75;;
12816;SDS011;6473;51.552;6.716;2023-04-01T05:13:17;3.75;;;3.45;;
12816;SDS011;6473;51.552;6.716;2023-04-01T05:15:47;4.07;;;3.42;;
12816;SDS011;6473;51.552;6.716;2023-04-01T05:18:15;5.85;;;3.90;;
12816;SDS011;6473;51.552;6.716;2023-04-01T05:20:45;4.45;;;3.90;;
12816;SDS011;6473;51.552;6.716;2023-04-01T05:23:13;6.35;;;4.35;;
12816;SDS011;6473;51.552;6.716;2023-04-01T05:25:40;7.03;;;4.55;;
12816;SDS011;6473;51.552;6.716;2023-04-01T05:28:07;5.70;;;3.60;;
12816;SDS011;6473;51.552;6.716;2023-04-01T05:30:34;6.05;;;3.92;;
12816;SDS011;6473;51.552;6.716;2023-04-01T05:33:11;5.03;;;4.32;;
12816;SDS011;6473;51.552;6.716;2023-04-01T05:35:39;6.78;;;4.10;;
12816;SDS011;6473;51.552;6.716;2023-04-01T05:38:06;5.53;;;4.45;;
12816;SDS011;6473;51.552;6.716;2023-04-01T05:40:33;5.20;;;3.75;;
12816;SDS011;6473;51.552;6.716;2023-04-01T05:43:01;5.20;;;4.05;;
12816;SDS011;6473;51.552;6.716;2023-04-01T05:45:28;6.25;;;4.18;;
12816;SDS011;6473;51.552;6.716;2023-04-01T05:48:14;6.65;;;4.15;;
12816;SDS011;6473;51.552;6.716;2023-04-01T05:50:41;4.85;;;4.35;;
12816;SDS011;6473;51.552;6.716;2023-04-01T05:53:09;5.38;;;3.90;;
12816;SDS011;6473;51.552;6.716;2023-04-01T05:55:39;4.90;;;4.25;;
12816;SDS011;6473;51.552;6.716;2023-04-01T05:58:06;7.53;;;4.97;;
12816;SDS011;6473;51.552;6.716;2023-04-01T06:00:35;5.40;;;4.50;;
12816;SDS011;6473;51.552;6.716;2023-04-01T06:03:02;5.88;;;4.95;;
12816;SDS011;6473;51.552;6.716;2023-04-01T06:05:30;6.88;;;5.47;;
12816;SDS011;6473;51.552;6.716;2023-04-01T06:08:05;7.72;;;5.80;;
12816;SDS011;6473;51.552;6.716;2023-04-01T06:10:38;7.43;;;5.60;;
12816;SDS011;6473;51.552;6.716;2023-04-01T06:13:17;8.50;;;5.28;;
12816;SDS011;6473;51.552;6.716;2023-04-01T06:15:57;7.35;;;5.85;;
12816;SDS011;6473;51.552;6.716;2023-04-01T06:18:38;8.07;;;5.97;;
12816;SDS011;6473;51.552;6.716;2023-04-01T06:21:25;7.35;;;5.50;;
12816;SDS011;6473;51.552;6.716;2023-04-01T06:24:08;8.55;;;6.10;;
12816;SDS011;6473;51.552;6.716;2023-04-01T06:26:49;7.07;;;5.75;;
12816;SDS011;6473;51.552;6.716;2023-04-01T06:29:29;7.68;;;5.32;;
12816;SDS011;6473;51.552;6.716;2023-04-01T06:35:16;7.55;;;5.57;;
12816;SDS011;6473;51.552;6.716;2023-04-01T06:41:06;9.07;;;6.72;;
12816;SDS011;6473;51.552;6.716;2023-04-01T06:44:08;7.20;;;6.15;;
12816;SDS011;6473;51.552;6.716;2023-04-01T06:47:03;7.18;;;6.32;;
12816;SDS011;6473;51.552;6.716;2023-04-01T06:50:22;9.77;;;7.07;;
12816;SDS011;6473;51.552;6.716;2023-04-01T06:53:12;9.45;;;7.25;;
12816;SDS011;6473;51.552;6.716;2023-04-01T06:56:06;10.30;;;6.45;;
12816;SDS011;6473;51.552;6.716;2023-04-01T06:58:46;9.75;;;6.93;;
12816;SDS011;6473;51.552;6.716;2023-04-01T07:01:16;8.52;;;6.75;;
12816;SDS011;6473;51.552;6.716;2023-04-01T07:03:50;8.05;;;6.85;;
12816;SDS011;6473;51.552;6.716;2023-04-01T07:06:24;9.10;;;6.82;;
12816;SDS011;6473;51.552;6.716;2023-04-01T07:08:57;9.07;;;6.97;;
12816;SDS011;6473;51.552;6.716;2023-04-01T07:11:38;9.20;;;7.18;;
12816;SDS011;6473;51.552;6.716;2023-04-01T07:14:39;8.95;;;7.20;;
12816;SDS011;6473;51.552;6.716;2023-04-01T07:17:11;9.80;;;6.88;;
12816;SDS011;6473;51.552;6.716;2023-04-01T07:19:42;9.80;;;6.88;;
12816;SDS011;6473;51.552;6.716;2023-04-01T07:22:14;8.18;;;6.88;;
12816;SDS011;6473;51.552;6.716;2023-04-01T07:25:02;10.18;;;7.07;;
12816;SDS011;6473;51.552;6.716;2023-04-01T07:27:38;8.98;;;6.60;;
12816;SDS011;6473;51.552;6.716;2023-04-01T07:30:12;9.55;;;6.38;;
12816;SDS011;6473;51.552;6.716;2023-04-01T07:32:42;9.80;;;6.90;;
12816;SDS011;6473;51.552;6.716;2023-04-01T07:35:16;8.52;;;6.47;;
12816;SDS011;6473;51.552;6.716;2023-04-01T07:37:55;8.98;;;6.68;;
12816;SDS011;6473;51.552;6.716;2023-04-01T07:40:40;8.05;;;6.30;;
12816;SDS011;6473;51.552;6.716;2023-04-01T07:43:19;8.63;;;6.40;;
12816;SDS011;6473;51.552;6.716;2023-04-01T07:46:11;9.38;;;6.15;;
12816;SDS011;6473;51.552;6.716;2023-04-01T07:48:46;9.07;;;5.80;;
12816;SDS011;6473;51.552;6.716;2023-04-01T07:51:21;9.73;;;6.55;;
12816;SDS011;6473;51.552;6.716;2023-04-01T07:53:56;9.82;;;6.68;;
12816;SDS011;6473;51.552;6.716;2023-04-01T07:56:31;9.80;;;6.50;;
12816;SDS011;6473;51.552;6.716;2023-04-01T07:59:05;11.15;;;7.20;;
12816;SDS011;6473;51.552;6.716;2023-04-01T08:01:55;10.70;;;7.15;;
12816;SDS011;6473;51.552;6.716;2023-04-01T08:04:35;10.85;;;7.30;;
12816;SDS011;6473;51.552;6.716;2023-04-01T08:07:10;11.25;;;7.32;;
12816;SDS011;6473;51.552;6.716;2023-04-01T08:09:57;11.82;;;7.65;;
12816;SDS011;6473;51.552;6.716;2023-04-01T08:12:58;10.30;;;7.40;;
12816;SDS011;6473;51.552;6.716;2023-04-01T08:15:53;9.93;;;6.90;;
12816;SDS011;6473;51.552;6.716;2023-04-01T08:18:43;10.70;;;7.03;;
12816;SDS011;6473;51.552;6.716;2023-04-01T08:21:20;10.73;;;7.20;;
12816;SDS011;6473;51.552;6.716;2023-04-01T08:23:51;12.75;;;7.93;;
12816;SDS011;6473;51.552;6.716;2023-04-01T08:26:23;12.05;;;7.50;;
12816;SDS011;6473;51.552;6.716;2023-04-01T08:28:57;12.35;;;8.23;;
12816;SDS011;6473;51.552;6.716;2023-04-01T08:31:30;11.98;;;7.80;;
12816;SDS011;6473;51.552;6.716;2023-04-01T08:34:01;13.73;;;8.25;;
12816;SDS011;6473;51.552;6.716;2023-04-01T08:36:32;12.25;;;7.80;;
12816;SDS011;6473;51.552;6.716;2023-04-01T08:39:10;13.10;;;8.15;;
12816;SDS011;6473;51.552;6.716;2023-04-01T08:48:04;11.27;;;7.95;;
12816;SDS011;6473;51.552;6.716;2023-04-01T08:50:47;12.25;;;8.00;;
12816;SDS011;6473;51.552;6.716;2023-04-01T08:53:43;11.32;;;7.75;;
12816;SDS011;6473;51.552;6.716;2023-04-01T08:56:33;14.25;;;8.15;;
12816;SDS011;6473;51.552;6.716;2023-04-01T08:59:30;13.35;;;7.53;;
12816;SDS011;6473;51.552;6.716;2023-04-01T09:02:46;12.25;;;7.75;;
12816;SDS011;6473;51.552;6.716;2023-04-01T09:05:36;12.55;;;7.50;;
12816;SDS011;6473;51.552;6.716;2023-04-01T09:08:14;12.40;;;8.50;;
12816;SDS011;6473;51.552;6.716;2023-04-01T09:10:58;13.10;;;8.35;;
12816;SDS011;6473;51.552;6.716;2023-04-01T09:14:17;12.02;;;7.43;;
12816;SDS011;6473;51.552;6.716;2023-04-01T09:17:23;10.70;;;7.85;;
12816;SDS011;6473;51.552;6.716;2023-04-01T09:20:14;12.55;;;8.68;;
12816;SDS011;6473;51.552;6.716;2023-04-01T09:22:52;14.57;;;8.63;;
12816;SDS011;6473;51.552;6.716;2023-04-01T09:25:41;16.13;;;8.60;;
12816;SDS011;6473;51.552;6.716;2023-04-01T09:28:17;12.65;;;8.68;;
12816;SDS011;6473;51.552;6.716;2023-04-01T09:31:00;14.65;;;8.43;;
12816;SDS011;6473;51.552;6.716;2023-04-01T09:34:15;12.98;;;8.55;;
12816;SDS011;6473;51.552;6.716;2023-04-01T09:37:13;14.60;;;9.18;;
12816;SDS011;6473;51.552;6.716;2023-04-01T09:40:08;13.90;;;9.10;;
12816;SDS011;6473;51.552;6.716;2023-04-01T09:42:45;14.77;;;9.50;;
12816;SDS011;6473;51.552;6.716;2023-04-01T09:45:32;14.90;;;9.07;;
12816;SDS011;6473;51.552;6.716;2023-04-01T09:48:10;12.63;;;9.10;;
12816;SDS011;6473;51.552;6.716;2023-04-01T09:50:47;13.75;;;9.10;;
12816;SDS011;6473;51.552;6.716;2023-04-01T09:53:29;11.00;;;7.85;;
12816;SDS011;6473;51.552;6.716;2023-04-01T10:09:02;10.80;;;7.20;;
12816;SDS011;6473;51.552;6.716;2023-04-01T10:12:06;10.43;;;7.07;;
12816;SDS011;6473;51.552;6.716;2023-04-01T10:15:15;9.93;;;7.65;;
12816;SDS011;6473;51.552;6.716;2023-04-01T10:18:27;8.73;;;6.53;;
12816;SDS011;6473;51.552;6.716;2023-04-01T10:21:24;7.72;;;6.18;;
12816;SDS011;6473;51.552;6.716;2023-04-01T10:24:04;9.63;;;7.07;;
12816;SDS011;6473;51.552;6.716;2023-04-01T10:27:00;7.55;;;6.75;;
12816;SDS011;6473;51.552;6.716;2023-04-01T10:30:19;8.95;;;6.55;;
12816;SDS011;6473;51.552;6.716;2023-04-01T10:36:26;7.97;;;6.38;;
12816;SDS011;6473;51.552;6.716;2023-04-01T10:39:20;8.13;;;6.32;;
12816;SDS011;6473;51.552;6.716;2023-04-01T10:42:27;7.78;;;5.95;;
12816;SDS011;6473;51.552;6.716;2023-04-01T10:48:52;7.35;;;6.03;;
12816;SDS011;6473;51.552;6.716;2023-04-01T10:51:43;7.43;;;6.28;;
12816;SDS011;6473;51.552;6.716;2023-04-01T10:54:57;8.30;;;6.40;;
12816;SDS011;6473;51.552;6.716;2023-04-01T11:01:56;8.18;;;6.38;;
12816;SDS011;6473;51.552;6.716;2023-04-01T11:23:44;7.28;;;6.22;;
12816;SDS011;6473;51.552;6.716;2023-04-01T11:26:45;7.90;;;7.10;;
12816;SDS011;6473;51.552;6.716;2023-04-01T11:29:36;8.32;;;6.43;;
12816;SDS011;6473;51.552;6.716;2023-04-01T11:32:34;8.63;;;6.57;;
12816;SDS011;6473;51.552;6.716;2023-04-01T11:38:25;7.53;;;6.15;;
12816;SDS011;6473;51.552;6.716;2023-04-01T11:41:31;8.27;;;6.85;;
12816;SDS011;6473;51.552;6.716;2023-04-01T11:44:23;10.32;;;7.10;;
12816;SDS011;6473;51.552;6.716;2023-04-01T11:47:19;9.43;;;6.85;;
12816;SDS011;6473;51.552;6.716;2023-04-01T11:50:00;8.75;;;6.95;;
12816;SDS011;6473;51.552;6.716;2023-04-01T11:55:38;8.93;;;6.82;;
12816;SDS011;6473;51.552;6.716;2023-04-01T11:58:18;8.65;;;6.68;;
12816;SDS011;6473;51.552;6.716;2023-04-01T12:01:28;7.47;;;6.78;;
12816;SDS011;6473;51.552;6.716;2023-04-01T12:04:17;7.93;;;7.18;;
12816;SDS011;6473;51.552;6.716;2023-04-01T12:07:06;8.40;;;7.05;;
12816;SDS011;6473;51.552;6.716;2023-04-01T12:09:44;7.65;;;6.65;;
12816;SDS011;6473;51.552;6.716;2023-04-01T12:12:20;8.68;;;6.97;;
12816;SDS011;6473;51.552;6.716;2023-04-01T12:14:59;6.97;;;6.28;;
12816;SDS011;6473;51.552;6.716;2023-04-01T12:17:39;7.60;;;5.80;;
12816;SDS011;6473;51.552;6.716;2023-04-01T12:20:20;7.10;;;6.40;;
12816;SDS011;6473;51.552;6.716;2023-04-01T12:22:56;5.45;;;4.88;;
12816;SDS011;6473;51.552;6.716;2023-04-01T12:25:39;4.55;;;4.15;;
12816;SDS011;6473;51.552;6.716;2023-04-01T12:28:25;4.90;;;4.40;;
12816;SDS011;6473;51.552;6.716;2023-04-01T12:31:05;5.80;;;4.20;;
12816;SDS011;6473;51.552;6.716;2023-04-01T12:33:54;4.50;;;4.10;;
12816;SDS011;6473;51.552;6.716;2023-04-01T12:36:35;4.78;;;4.25;;
12816;SDS011;6473;51.552;6.716;2023-04-01T12:42:07;4.30;;;3.88;;
12816;SDS011;6473;51.552;6.716;2023-04-01T12:44:54;4.85;;;4.18;;
12816;SDS011;6473;51.552;6.716;2023-04-01T12:47:44;4.60;;;4.05;;
12816;SDS011;6473;51.552;6.716;2023-04-01T12:50:59;4.13;;;3.80;;
12816;SDS011;6473;51.552;6.716;2023-04-01T12:54:02;4.38;;;3.88;;
12816;SDS011;6473;51.552;6.716;2023-04-01T12:56:47;4.07;;;3.67;;
12816;SDS011;6473;51.552;6.716;2023-04-01T12:59:24;4.35;;;3.95;;
12816;SDS011;6473;51.552;6.716;2023-04-01T13:02:09;5.90;;;4.38;;
12816;SDS011;6473;51.552;6.716;2023-04-01T13:08:01;4.88;;;4.43;;
12816;SDS011;6473;51.552;6.716;2023-04-01T13:10:38;5.32;;;4.82;;
12816;SDS011;6473;51.552;6.716;2023-04-01T13:13:29;5.93;;;5.05;;
12816;SDS011;6473;51.552;6.716;2023-04-01T13:16:05;4.90;;;4.40;;
12816;SDS011;6473;51.552;6.716;2023-04-01T13:18:39;5.70;;;5.07;;
12816;SDS011;6473;51.552;6.716;2023-04-01T13:21:19;4.53;;;4.13;;
12816;SDS011;6473;51.552;6.716;2023-04-01T13:23:57;5.43;;;4.35;;
12816;SDS011;6473;51.552;6.716;2023-04-01T13:26:34;6.55;;;5.88;;
12816;SDS011;6473;51.552;6.716;2023-04-01T13:29:09;7.13;;;6.43;;
12816;SDS011;6473;51.552;6.716;2023-04-01T13:31:44;6.75;;;6.15;;
12816;SDS011;6473;51.552;6.716;2023-04-01T13:34:30;8.15;;;6.78;;
12816;SDS011;6473;51.552;6.716;2023-04-01T13:37:15;7.65;;;6.95;;
12816;SDS011;6473;51.552;6.716;2023-04-01T13:40:34;6.93;;;6.10;;
12816;SDS011;6473;51.552;6.716;2023-04-01T13:43:12;7.00;;;6.30;;
12816;SDS011;6473;51.552;6.716;2023-04-01T13:45:49;6.18;;;5.53;;
12816;SDS011;6473;51.552;6.716;2023-04-01T14:11:59;7.25;;;6.55;;
12816;SDS011;6473;51.552;6.716;2023-04-01T14:14:35;8.90;;;7.78;;
12816;SDS011;6473;51.552;6.716;2023-04-01T14:20:16;8.60;;;7.80;;
12816;SDS011;6473;51.552;6.716;2023-04-01T14:23:07;8.93;;;8.10;;
12816;SDS011;6473;51.552;6.716;2023-04-01T14:26:01;10.98;;;8.75;;
12816;SDS011;6473;51.552;6.716;2023-04-01T14:28:39;10.48;;;8.77;;
12816;SDS011;6473;51.552;6.716;2023-04-01T14:34:05;11.88;;;9.55;;
12816;SDS011;6473;51.552;6.716;2023-04-01T14:37:07;9.63;;;8.73;;
12816;SDS011;6473;51.552;6.716;2023-04-01T14:39:51;10.73;;;9.38;;
12816;SDS011;6473;51.552;6.716;2023-04-01T14:45:40;9.43;;;8.45;;
12816;SDS011;6473;51.552;6.716;2023-04-01T14:48:25;10.38;;;9.38;;
12816;SDS011;6473;51.552;6.716;2023-04-01T14:51:02;9.05;;;8.02;;
12816;SDS011;6473;51.552;6.716;2023-04-01T14:53:36;8.77;;;7.85;;
12816;SDS011;6473;51.552;6.716;2023-04-01T14:56:10;10.00;;;8.65;;
12816;SDS011;6473;51.552;6.716;2023-04-01T14:58:42;9.27;;;8.27;;
12816;SDS011;6473;51.552;6.716;2023-04-01T15:01:16;9.52;;;8.30;;
12816;SDS011;6473;51.552;6.716;2023-04-01T15:03:54;8.93;;;8.02;;
12816;SDS011;6473;51.552;6.716;2023-04-01T15:06:34;9.35;;;8.18;;
12816;SDS011;6473;51.552;6.716;2023-04-01T15:09:14;8.50;;;7.63;;
12816;SDS011;6473;51.552;6.716;2023-04-01T15:11:52;8.23;;;7.43;;
12816;SDS011;6473;51.552;6.716;2023-04-01T15:14:34;7.43;;;6.55;;
12816;SDS011;6473;51.552;6.716;2023-04-01T15:17:18;7.07;;;6.38;;
12816;SDS011;6473;51.552;6.716;2023-04-01T15:19:57;7.30;;;6.60;;
12816;SDS011;6473;51.552;6.716;2023-04-01T15:22:46;7.03;;;6.07;;
12816;SDS011;6473;51.552;6.716;2023-04-01T15:25:31;6.80;;;6.10;;
12816;SDS011;6473;51.552;6.716;2023-04-01T15:28:09;6.70;;;5.78;;
12816;SDS011;6473;51.552;6.716;2023-04-01T15:30:45;5.97;;;4.95;;
12816;SDS011;6473;51.552;6.716;2023-04-01T15:33:24;5.72;;;5.13;;
12816;SDS011;6473;51.552;6.716;2023-04-01T15:36:15;5.32;;;4.82;;
12816;SDS011;6473;51.552;6.716;2023-04-01T15:38:58;6.30;;;4.88;;
12816;SDS011;6473;51.552;6.716;2023-04-01T15:41:36;5.43;;;4.45;;
12816;SDS011;6473;51.552;6.716;2023-04-01T15:47:19;5.00;;;4.50;;
12816;SDS011;6473;51.552;6.716;2023-04-01T15:50:00;4.53;;;4.10;;
12816;SDS011;6473;51.552;6.716;2023-04-01T15:52:49;5.10;;;4.45;;
12816;SDS011;6473;51.552;6.716;2023-04-01T15:55:25;4.72;;;4.32;;
12816;SDS011;6473;51.552;6.716;2023-04-01T15:58:06;4.95;;;4.40;;
12816;SDS011;6473;51.552;6.716;2023-04-01T16:00:50;5.18;;;4.68;;
12816;SDS011;6473;51.552;6.716;2023-04-01T16:03:30;5.00;;;4.50;;
12816;SDS011;6473;51.552;6.716;2023-04-01T16:06:13;5.38;;;4.88;;
12816;SDS011;6473;51.552;6.716;2023-04-01T16:09:06;5.50;;;5.00;;
12816;SDS011;6473;51.552;6.716;2023-04-01T16:11:54;6.30;;;5.28;;
12816;SDS011;6473;51.552;6.716;2023-04-01T16:14:33;5.15;;;4.60;;
12816;SDS011;6473;51.552;6.716;2023-04-01T16:17:14;6.38;;;5.10;;
12816;SDS011;6473;51.552;6.716;2023-04-01T16:19:57;5.60;;;5.00;;
12816;SDS011;6473;51.552;6.716;2023-04-01T16:22:31;5.65;;;5.05;;
12816;SDS011;6473;51.552;6.716;2023-04-01T16:25:05;5.53;;;5.03;;
12816;SDS011;6473;51.552;6.716;2023-04-01T16:27:56;5.15;;;4.65;;
12816;SDS011;6473;51.552;6.716;2023-04-01T16:30:35;5.13;;;4.63;;
12816;SDS011;6473;51.552;6.716;2023-04-01T16:33:04;5.68;;;4.85;;
12816;SDS011;6473;51.552;6.716;2023-04-01T16:35:42;6.30;;;5.40;;
12816;SDS011;6473;51.552;6.716;2023-04-01T16:38:18;6.20;;;5.30;;
12816;SDS011;6473;51.552;6.716;2023-04-01T16:40:53;6.70;;;5.85;;
12816;SDS011;6473;51.552;6.716;2023-04-01T16:43:38;5.88;;;4.85;;
12816;SDS011;6473;51.552;6.716;2023-04-01T16:51:57;5.68;;;5.00;;
12816;SDS011;6473;51.552;6.716;2023-04-01T16:54:42;5.88;;;5.20;;
12816;SDS011;6473;51.552;6.716;2023-04-01T16:57:21;4.90;;;4.50;;
12816;SDS011;6473;51.552;6.716;2023-04-01T16:59:54;5.55;;;4.97;;
12816;SDS011;6473;51.552;6.716;2023-04-01T17:02:26;5.97;;;5.22;;
12816;SDS011;6473;51.552;6.716;2023-04-01T17:04:58;5.85;;;5.25;;
12816;SDS011;6473;51.552;6.716;2023-04-01T17:07:32;5.85;;;5.25;;
12816;SDS011;6473;51.552;6.716;2023-04-01T17:10:24;6.28;;;5.00;;
12816;SDS011;6473;51.552;6.716;2023-04-01T17:13:05;6.22;;;5.32;;
12816;SDS011;6473;51.552;6.716;2023-04-01T17:15:51;6.82;;;5.57;;
12816;SDS011;6473;51.552;6.716;2023-04-01T17:18:26;8.50;;;5.43;;
12816;SDS011;6473;51.552;6.716;2023-04-01T17:21:04;6.88;;;5.13;;
12816;SDS011;6473;51.552;6.716;2023-04-01T17:23:37;6.88;;;5.30;;
12816;SDS011;6473;51.552;6.716;2023-04-01T17:26:17;9.75;;;5.50;;
12816;SDS011;6473;51.552;6.716;2023-04-01T17:28:53;9.70;;;5.53;;
12816;SDS011;6473;51.552;6.716;2023-04-01T17:34:26;8.00;;;5.68;;
12816;SDS011;6473;51.552;6.716;2023-04-01T17:37:10;9.15;;;6.03;;
12816;SDS011;6473;51.552;6.716;2023-04-01T17:39:57;9.75;;;6.50;;
12816;SDS011;6473;51.552;6.716;2023-04-01T17:42:40;9.38;;;6.95;;
12816;SDS011;6473;51.552;6.716;2023-04-01T17:45:16;8.88;;;6.70;;
12816;SDS011;6473;51.552;6.716;2023-04-01T17:47:49;9.45;;;7.13;;
12816;SDS011;6473;51.552;6.716;2023-04-01T17:50:28;8.55;;;7.50;;
12816;SDS011;6473;51.552;6.716;2023-04-01T17:53:13;12.68;;;6.90;;
12816;SDS011;6473;51.552;6.716;2023-04-01T17:58:44;9.52;;;7.43;;
12816;SDS011;6473;51.552;6.716;2023-04-01T18:01:17;11.60;;;7.78;;